Time;durP1;ratioP1;P1;durP2;ratioP2;P2;SDS_P1;SDS_P2;PMS_P1;PMS_P2;Temp;Humidity;BMP_temperature;BMP_pressure;BME280_temperature;BME280_humidity;BME280_pressure;Samples;Min_cycle;Max_cycle;Signal;HPM_P1;HPM_P2
2023/08/25 00:00:22;;;;;;;;;;;22.90;99.90;;;;;;5072040;28;20274;-68
2023/08/25 00:02:48;;;;;;;;;;;22.90;99.90;;;;;;5073680;28;19973;-67
2023/08/25 00:05:13;;;;;;;;;;;22.90;99.90;;;;;;5073122;28;19927;-68
2023/08/25 00:07:39;;;;;;;;;;;22.90;99.90;;;;;;5073108;28;20009;-68
2023/08/25 00:10:05;;;;;;;;;;;22.90;99.90;;;;;;5073477;28;19978;-68
2023/08/25 00:12:31;;;;;;;;;;;22.80;99.90;;;;;;5073000;28;19913;-67
2023/08/25 00:14:56;;;;;;;;;;;22.70;99.90;;;;;;5073735;28;19974;-68
2023/08/25 00:17:22;;;;;;;;;;;22.60;99.90;;;;;;5072985;28;19913;-67
2023/08/25 00:19:48;;;;;;;;;;;22.60;99.90;;;;;;5073037;28;19924;-68
2023/08/25 00:22:13;;;;;;;;;;;22.50;99.90;;;;;;5072833;28;19920;-67
2023/08/25 00:24:38;;;;;;;;;;;22.50;99.90;;;;;;5071742;28;20362;-67
2023/08/25 00:27:04;;;;;;;;;;;22.50;99.90;;;;;;5073003;28;19944;-67
2023/08/25 00:29:30;;;;;;;;;;;22.50;99.90;;;;;;5073353;28;20357;-67
2023/08/25 00:31:55;;;;;;;;;;;22.50;99.90;;;;;;5072998;28;20388;-68
2023/08/25 00:34:21;;;;;;;;;;;22.50;99.90;;;;;;5072521;28;19946;-68
2023/08/25 00:36:47;;;;;;;;;;;22.40;99.90;;;;;;5072462;28;20526;-67
2023/08/25 00:39:12;;;;;;;;;;;22.50;99.90;;;;;;5072486;28;20231;-68
2023/08/25 00:41:38;;;;;;;;;;;22.50;99.90;;;;;;5072067;28;19917;-67
2023/08/25 00:44:04;;;;;;;;;;;22.50;99.90;;;;;;5072583;28;19923;-67
2023/08/25 00:46:30;;;;;;;;;;;22.50;99.90;;;;;;5072350;28;20242;-68
2023/08/25 00:48:56;;;;;;;;;;;22.50;99.90;;;;;;5072366;28;20025;-68
2023/08/25 00:51:22;;;;;;;;;;;22.50;99.90;;;;;;5072357;28;19920;-67
2023/08/25 00:53:48;;;;;;;;;;;22.50;99.90;;;;;;5072639;28;20327;-68
2023/08/25 00:56:14;;;;;;;;;;;22.40;99.90;;;;;;5072442;28;19956;-67
2023/08/25 00:58:40;;;;;;;;;;;22.40;99.90;;;;;;5072041;28;19974;-67
2023/08/25 01:01:06;;;;;;;;;;;22.40;99.90;;;;;;5072159;28;20011;-69
2023/08/25 01:03:32;;;;;;;;;;;22.50;99.90;;;;;;5088074;28;19992;-69
2023/08/25 01:05:57;;;;;;;;;;;22.40;99.90;;;;;;5072453;28;20090;-69
2023/08/25 01:08:24;;;;;;;;;;;22.40;99.90;;;;;;5071064;28;20023;-67
2023/08/25 01:11:15;;;;;;;;;;;22.40;99.90;;;;;;5071965;28;19923;-67
2023/08/25 01:14:03;;;;;;;;;;;22.40;99.90;;;;;;5071884;28;20348;-68
2023/08/25 01:16:31;;;;;;;;;;;22.50;99.90;;;;;;5060122;28;20342;-68
2023/08/25 01:18:58;;;;;;;;;;;22.50;99.90;;;;;;5071806;28;19917;-68
2023/08/25 01:21:24;;;;;;;;;;;22.50;99.90;;;;;;5071697;28;19920;-67
2023/08/25 01:24:07;;;;;;;;;;;22.50;99.90;;;;;;5070977;28;20369;-67
2023/08/25 01:26:33;;;;;;;;;;;22.50;99.90;;;;;;5072029;28;19982;-68
2023/08/25 01:28:58;;;;;;;;;;;22.50;99.90;;;;;;5071671;28;20351;-68
2023/08/25 01:31:24;;;;;;;;;;;22.50;99.90;;;;;;5070593;28;19935;-68
2023/08/25 01:33:50;;;;;;;;;;;22.50;99.90;;;;;;5087149;28;19925;-67
2023/08/25 01:36:25;;;;;;;;;;;22.50;99.90;;;;;;5083256;28;19938;-67
2023/08/25 01:39:01;;;;;;;;;;;22.50;99.90;;;;;;5092172;28;19919;-68
2023/08/25 01:41:32;;;;;;;;;;;22.50;99.90;;;;;;5091807;28;19916;-68
2023/08/25 01:43:59;;;;;;;;;;;22.60;99.90;;;;;;5090554;28;19927;-69
2023/08/25 01:46:26;;;;;;;;;;;22.60;99.90;;;;;;5091703;28;19912;-68
2023/08/25 01:48:55;;;;;;;;;;;22.50;99.90;;;;;;5091964;28;19916;-68
2023/08/25 01:51:20;;;;;;;;;;;22.60;99.90;;;;;;5090555;28;19934;-69
2023/08/25 01:53:53;;;;;;;;;;;22.60;99.90;;;;;;5091143;28;19912;-68
2023/08/25 01:56:19;;;;;;;;;;;22.70;99.90;;;;;;5091626;28;19916;-69
2023/08/25 01:58:44;;;;;;;;;;;22.70;99.90;;;;;;5091550;28;19912;-67
2023/08/25 02:01:10;;;;;;;;;;;22.70;99.90;;;;;;5091444;28;19916;-69
2023/08/25 02:03:36;;;;;;;;;;;22.70;99.90;;;;;;5091422;28;19924;-68
2023/08/25 02:06:01;;;;;;;;;;;22.70;99.90;;;;;;5092016;28;19935;-68
2023/08/25 02:08:27;;;;;;;;;;;22.70;99.90;;;;;;5090431;28;19936;-68
2023/08/25 02:10:52;;;;;;;;;;;22.70;99.90;;;;;;5092122;28;19912;-67
2023/08/25 02:13:18;;;;;;;;;;;22.70;99.90;;;;;;5095953;28;19916;-69
2023/08/25 02:15:45;;;;;;;;;;;22.70;99.90;;;;;;5095692;28;20244;-68
2023/08/25 02:18:11;;;;;;;;;;;22.70;99.90;;;;;;5095860;28;19912;-69
2023/08/25 02:20:38;;;;;;;;;;;22.60;99.90;;;;;;5095981;28;19908;-68
2023/08/25 02:23:04;;;;;;;;;;;22.60;99.90;;;;;;5095579;28;19916;-69
2023/08/25 02:25:30;;;;;;;;;;;22.50;99.90;;;;;;5095609;28;19919;-67
2023/08/25 02:27:56;;;;;;;;;;;22.50;99.90;;;;;;5095402;28;20008;-68
2023/08/25 02:30:22;;;;;;;;;;;22.50;99.90;;;;;;5095440;28;19994;-68
2023/08/25 02:32:47;;;;;;;;;;;22.40;99.90;;;;;;5095826;28;20027;-67
2023/08/25 02:35:13;;;;;;;;;;;22.30;99.90;;;;;;5095044;28;19928;-67
2023/08/25 02:37:54;;;;;;;;;;;22.30;99.90;;;;;;5094148;28;19939;-67
2023/08/25 02:40:20;;;;;;;;;;;22.30;99.90;;;;;;5095164;28;19916;-68
2023/08/25 02:42:45;;;;;;;;;;;22.30;99.90;;;;;;5095170;28;20242;-68
2023/08/25 02:45:11;;;;;;;;;;;22.20;99.90;;;;;;5095488;28;19942;-68
2023/08/25 02:47:36;;;;;;;;;;;22.10;99.90;;;;;;5095384;28;19919;-67
2023/08/25 02:50:03;;;;;;;;;;;22.10;99.90;;;;;;5094776;28;20257;-67
2023/08/25 02:52:28;;;;;;;;;;;22.10;99.90;;;;;;5094516;28;19923;-67
2023/08/25 02:54:54;;;;;;;;;;;22.10;99.90;;;;;;5093822;28;19912;-68
2023/08/25 02:57:19;;;;;;;;;;;22.00;99.90;;;;;;5095226;28;19908;-67
2023/08/25 02:59:45;;;;;;;;;;;22.00;99.90;;;;;;5095303;28;19962;-67
2023/08/25 03:02:10;;;;;;;;;;;21.90;99.90;;;;;;5094853;28;19916;-68
2023/08/25 03:04:36;;;;;;;;;;;21.90;99.90;;;;;;5094582;28;19948;-67
2023/08/25 03:07:01;;;;;;;;;;;21.80;99.90;;;;;;5094585;28;20261;-67
2023/08/25 03:09:27;;;;;;;;;;;21.80;99.90;;;;;;5094508;28;20349;-67
2023/08/25 03:11:53;;;;;;;;;;;21.80;99.90;;;;;;5094978;28;20313;-68
2023/08/25 03:14:18;;;;;;;;;;;21.80;99.90;;;;;;5094541;28;19943;-68
2023/08/25 03:16:44;;;;;;;;;;;21.80;99.90;;;;;;5094639;28;19914;-69
2023/08/25 03:19:09;;;;;;;;;;;21.80;99.90;;;;;;5094365;28;19912;-68
2023/08/25 03:21:35;;;;;;;;;;;21.80;99.90;;;;;;5094232;28;19986;-69
2023/08/25 03:24:00;;;;;;;;;;;21.70;99.90;;;;;;5093155;28;20095;-68
2023/08/25 03:26:27;;;;;;;;;;;21.70;99.90;;;;;;5094339;28;19912;-68
2023/08/25 03:28:52;;;;;;;;;;;21.70;99.90;;;;;;5094231;28;19916;-68
2023/08/25 03:31:19;;;;;;;;;;;21.70;99.90;;;;;;5094178;28;19935;-69
2023/08/25 03:33:44;;;;;;;;;;;21.60;99.90;;;;;;5094370;28;19924;-68
2023/08/25 03:36:10;;;;;;;;;;;21.60;99.90;;;;;;5094360;28;19934;-68
2023/08/25 03:38:35;;;;;;;;;;;21.60;99.90;;;;;;5094143;28;20211;-67
2023/08/25 03:41:01;;;;;;;;;;;21.60;99.90;;;;;;5093602;28;19969;-68
2023/08/25 03:43:26;;;;;;;;;;;21.60;99.90;;;;;;5093664;28;19931;-68
2023/08/25 03:45:52;;;;;;;;;;;21.60;99.90;;;;;;5093477;28;19916;-68
2023/08/25 03:48:17;;;;;;;;;;;21.60;99.90;;;;;;5092415;28;20002;-68
2023/08/25 03:50:47;;;;;;;;;;;21.50;99.90;;;;;;5094264;28;20407;-68
2023/08/25 03:53:13;;;;;;;;;;;21.50;99.90;;;;;;5093536;28;19970;-68
2023/08/25 03:55:38;;;;;;;;;;;21.50;99.90;;;;;;5093429;28;19916;-68
2023/08/25 03:58:04;;;;;;;;;;;21.50;99.90;;;;;;5093536;28;19912;-68
2023/08/25 04:00:29;;;;;;;;;;;21.50;99.90;;;;;;5093108;28;19931;-68
2023/08/25 04:02:55;;;;;;;;;;;21.40;99.90;;;;;;5093669;28;19990;-68
2023/08/25 04:05:20;;;;;;;;;;;21.30;99.90;;;;;;5092128;28;19912;-68
2023/08/25 04:07:46;;;;;;;;;;;21.30;99.90;;;;;;5092101;28;19923;-68
2023/08/25 04:10:12;;;;;;;;;;;21.20;99.90;;;;;;5093322;28;19968;-68
2023/08/25 04:12:37;;;;;;;;;;;21.20;99.90;;;;;;5093122;28;19927;-67
2023/08/25 04:15:03;;;;;;;;;;;21.20;99.90;;;;;;5093329;28;19912;-68
2023/08/25 04:17:30;;;;;;;;;;;21.20;99.90;;;;;;5093844;28;19919;-69
2023/08/25 04:19:55;;;;;;;;;;;21.10;99.90;;;;;;5092956;28;19916;-69
2023/08/25 04:22:21;;;;;;;;;;;21.10;99.90;;;;;;5093072;28;19927;-68
2023/08/25 04:24:47;;;;;;;;;;;21.10;99.90;;;;;;5093260;28;19928;-68
2023/08/25 04:27:12;;;;;;;;;;;21.10;99.90;;;;;;5093015;28;20389;-68
2023/08/25 04:29:38;;;;;;;;;;;21.10;99.90;;;;;;5092030;28;19908;-68
2023/08/25 04:32:03;;;;;;;;;;;21.10;99.90;;;;;;5091736;28;20338;-67
2023/08/25 04:34:29;;;;;;;;;;;21.10;99.90;;;;;;5092328;28;19924;-69
2023/08/25 04:36:54;;;;;;;;;;;21.00;99.90;;;;;;5092628;28;20257;-69
2023/08/25 04:39:20;;;;;;;;;;;20.90;99.90;;;;;;5091833;28;19912;-68
2023/08/25 04:41:45;;;;;;;;;;;21.00;99.90;;;;;;5092871;28;19908;-69
2023/08/25 04:44:11;;;;;;;;;;;20.90;99.90;;;;;;5091239;28;20011;-68
2023/08/25 04:46:37;;;;;;;;;;;20.90;99.90;;;;;;5091392;28;19923;-69
2023/08/25 04:49:02;;;;;;;;;;;20.90;99.90;;;;;;5092178;28;19978;-69
2023/08/25 04:51:28;;;;;;;;;;;20.90;99.90;;;;;;5092334;28;19924;-69
2023/08/25 04:53:53;;;;;;;;;;;20.90;99.90;;;;;;5093017;28;19912;-68
2023/08/25 04:56:19;;;;;;;;;;;20.90;99.90;;;;;;5092606;28;19937;-67
2023/08/25 04:58:45;;;;;;;;;;;20.90;99.90;;;;;;5091129;28;19935;-70
2023/08/25 05:01:10;;;;;;;;;;;20.80;99.90;;;;;;5092157;28;19916;-69
2023/08/25 05:03:35;;;;;;;;;;;20.80;99.90;;;;;;5092026;28;20076;-69
2023/08/25 05:06:01;;;;;;;;;;;20.90;99.90;;;;;;5092331;28;19916;-69
2023/08/25 05:08:27;;;;;;;;;;;20.80;99.90;;;;;;5090901;28;19927;-69
2023/08/25 05:10:52;;;;;;;;;;;20.80;99.90;;;;;;5091969;28;20389;-68
2023/08/25 05:13:18;;;;;;;;;;;20.90;99.90;;;;;;5091887;28;20385;-69
2023/08/25 05:15:43;;;;;;;;;;;20.90;99.90;;;;;;5091897;28;19916;-68
2023/08/25 05:18:09;;;;;;;;;;;20.90;99.90;;;;;;5091474;28;19908;-69
2023/08/25 05:20:34;;;;;;;;;;;20.90;99.90;;;;;;5092287;28;19926;-69
2023/08/25 05:23:00;;;;;;;;;;;20.90;99.90;;;;;;5091536;28;20023;-68
2023/08/25 05:25:25;;;;;;;;;;;20.90;99.90;;;;;;5091548;28;19931;-68
2023/08/25 05:27:51;;;;;;;;;;;20.90;99.90;;;;;;5091614;28;19920;-70
2023/08/25 05:30:16;;;;;;;;;;;20.90;99.90;;;;;;5091824;28;19952;-69
2023/08/25 05:32:42;;;;;;;;;;;21.00;99.90;;;;;;5091973;28;19904;-70
2023/08/25 05:35:08;;;;;;;;;;;21.00;99.90;;;;;;5091735;28;19968;-69
2023/08/25 05:37:34;;;;;;;;;;;21.00;99.90;;;;;;5091307;28;19999;-69
2023/08/25 05:39:59;;;;;;;;;;;21.10;99.90;;;;;;5091228;28;19913;-69
2023/08/25 05:42:26;;;;;;;;;;;21.10;99.90;;;;;;5091257;28;19916;-69
2023/08/25 05:44:51;;;;;;;;;;;21.20;99.90;;;;;;5091641;28;19943;-69
2023/08/25 05:47:17;;;;;;;;;;;21.20;99.90;;;;;;5090710;28;20259;-69
2023/08/25 05:49:43;;;;;;;;;;;21.20;99.90;;;;;;5091133;28;19938;-69
2023/08/25 05:52:08;;;;;;;;;;;21.30;99.90;;;;;;5091030;28;19974;-68
2023/08/25 05:54:34;;;;;;;;;;;21.40;99.90;;;;;;5091029;28;19912;-70
2023/08/25 05:56:59;;;;;;;;;;;21.50;99.90;;;;;;5091714;28;20030;-69
2023/08/25 05:59:25;;;;;;;;;;;21.40;99.90;;;;;;5091119;28;19916;-71
2023/08/25 06:01:50;;;;;;;;;;;21.50;99.90;;;;;;5091178;28;20291;-71
2023/08/25 06:04:16;;;;;;;;;;;21.50;99.90;;;;;;5091016;28;20266;-70
2023/08/25 06:06:41;;;;;;;;;;;21.60;99.90;;;;;;5091079;28;20094;-71
2023/08/25 06:09:08;;;;;;;;;;;21.60;99.90;;;;;;5089832;28;19919;-70
2023/08/25 06:11:34;;;;;;;;;;;21.70;99.90;;;;;;5090253;28;19912;-70
2023/08/25 06:13:59;;;;;;;;;;;21.70;99.90;;;;;;5090910;28;19923;-70
2023/08/25 06:16:26;;;;;;;;;;;21.80;99.90;;;;;;5091249;28;19954;-70
2023/08/25 06:18:52;;;;;;;;;;;21.80;99.90;;;;;;5091363;28;19916;-70
2023/08/25 06:21:17;;;;;;;;;;;21.80;99.90;;;;;;5091201;28;19927;-70
2023/08/25 06:23:43;;;;;;;;;;;21.90;99.90;;;;;;5091754;28;20372;-71
2023/08/25 06:26:09;;;;;;;;;;;22.00;99.90;;;;;;5091216;28;20308;-69
2023/08/25 06:28:35;;;;;;;;;;;22.00;99.90;;;;;;5091041;28;19912;-70
2023/08/25 06:31:01;;;;;;;;;;;22.00;99.90;;;;;;5091147;28;19912;-69
2023/08/25 06:33:29;;;;;;;;;;;22.00;99.90;;;;;;5090821;28;20029;-70
2023/08/25 06:35:56;;;;;;;;;;;22.10;99.90;;;;;;5092139;28;19908;-69
2023/08/25 06:38:22;;;;;;;;;;;22.10;99.90;;;;;;5091079;28;19912;-69
2023/08/25 06:40:48;;;;;;;;;;;22.10;99.90;;;;;;5091094;28;19947;-69
2023/08/25 06:43:13;;;;;;;;;;;22.10;99.90;;;;;;5091074;28;19912;-71
2023/08/25 06:45:39;;;;;;;;;;;22.20;99.90;;;;;;5090892;28;20023;-70
2023/08/25 06:48:04;;;;;;;;;;;22.30;99.90;;;;;;5090926;28;19909;-70
2023/08/25 06:50:30;;;;;;;;;;;22.40;99.90;;;;;;5091392;28;19915;-70
2023/08/25 06:52:56;;;;;;;;;;;22.40;99.90;;;;;;5090983;28;19985;-70
2023/08/25 06:55:22;;;;;;;;;;;22.40;99.90;;;;;;5090000;28;19912;-73
2023/08/25 06:57:48;;;;;;;;;;;22.50;99.90;;;;;;5093135;28;19977;-71
2023/08/25 07:00:13;;;;;;;;;;;22.50;99.90;;;;;;5094933;28;20024;-71
2023/08/25 07:02:40;;;;;;;;;;;22.50;99.90;;;;;;5095089;28;19919;-72
2023/08/25 07:05:06;;;;;;;;;;;22.50;99.90;;;;;;5094573;28;20376;-72
2023/08/25 07:07:33;;;;;;;;;;;22.60;99.90;;;;;;5095058;28;19912;-72
2023/08/25 07:09:59;;;;;;;;;;;22.50;99.90;;;;;;5093610;28;19939;-71
2023/08/25 07:12:24;;;;;;;;;;;22.60;99.90;;;;;;5094788;28;20339;-72
2023/08/25 07:14:50;;;;;;;;;;;22.60;99.90;;;;;;5095025;28;20258;-72
2023/08/25 07:17:16;;;;;;;;;;;22.70;99.90;;;;;;5094508;28;20253;-73
2023/08/25 07:19:42;;;;;;;;;;;22.70;99.90;;;;;;5093586;28;20016;-73
2023/08/25 07:22:08;;;;;;;;;;;22.80;99.90;;;;;;5094483;28;20322;-72
2023/08/25 07:24:33;;;;;;;;;;;22.90;99.90;;;;;;5094290;28;19939;-72
2023/08/25 07:27:00;;;;;;;;;;;22.80;99.90;;;;;;5094622;28;20326;-72
2023/08/25 07:29:25;;;;;;;;;;;22.90;99.90;;;;;;5092893;28;20342;-73
2023/08/25 07:31:52;;;;;;;;;;;22.90;99.90;;;;;;5093760;28;19931;-75
2023/08/25 07:34:17;;;;;;;;;;;23.00;99.90;;;;;;5094152;28;20009;-73
2023/08/25 07:36:43;;;;;;;;;;;23.10;99.90;;;;;;5094442;28;20024;-73
2023/08/25 07:39:08;;;;;;;;;;;23.10;99.90;;;;;;5094113;28;19920;-73
2023/08/25 07:41:34;;;;;;;;;;;23.10;99.90;;;;;;5094468;28;19908;-73
2023/08/25 07:43:59;;;;;;;;;;;23.20;99.90;;;;;;5094012;28;20008;-74
2023/08/25 07:46:25;;;;;;;;;;;23.30;99.90;;;;;;5093701;28;20010;-71
2023/08/25 07:48:51;;;;;;;;;;;23.40;99.90;;;;;;5093690;28;19946;-72
2023/08/25 07:51:16;;;;;;;;;;;23.60;99.90;;;;;;5092958;28;19908;-72
2023/08/25 07:53:42;;;;;;;;;;;23.70;99.90;;;;;;5094057;28;20308;-72
2023/08/25 07:56:08;;;;;;;;;;;23.70;99.90;;;;;;5092734;28;19916;-73
2023/08/25 07:58:33;;;;;;;;;;;23.80;99.90;;;;;;5093422;28;19916;-71
2023/08/25 08:01:01;;;;;;;;;;;23.80;99.90;;;;;;5093375;28;19955;-72
2023/08/25 08:03:28;;;;;;;;;;;23.90;99.90;;;;;;5092504;28;19913;-71
2023/08/25 08:05:54;;;;;;;;;;;24.00;99.90;;;;;;5094012;28;20364;-71
2023/08/25 08:08:19;;;;;;;;;;;24.00;99.90;;;;;;5092801;28;19939;-73
2023/08/25 08:10:45;;;;;;;;;;;24.20;99.90;;;;;;5093158;28;19916;-74
2023/08/25 08:13:10;;;;;;;;;;;24.30;99.90;;;;;;5093199;28;20365;-74
2023/08/25 08:15:36;;;;;;;;;;;24.50;99.90;;;;;;5091962;28;20334;-74
2023/08/25 08:18:02;;;;;;;;;;;24.60;99.90;;;;;;5093213;28;20192;-75
2023/08/25 08:20:27;;;;;;;;;;;24.90;99.90;;;;;;5092642;28;20315;-71
2023/08/25 08:22:53;;;;;;;;;;;25.20;99.90;;;;;;5093121;28;19985;-77
2023/08/25 08:25:19;;;;;;;;;;;25.80;99.50;;;;;;5093435;28;20369;-78
2023/08/25 08:27:45;;;;;;;;;;;25.90;98.90;;;;;;5093206;28;20214;-77
2023/08/25 08:30:11;;;;;;;;;;;25.90;99.10;;;;;;5093000;28;19908;-79
2023/08/25 08:32:38;;;;;;;;;;;25.90;98.50;;;;;;5092902;28;19908;-76
2023/08/25 08:35:07;;;;;;;;;;;25.90;98.70;;;;;;5091651;28;19938;-72
2023/08/25 08:37:33;;;;;;;;;;;25.80;98.60;;;;;;5091610;28;19912;-71
2023/08/25 08:39:58;;;;;;;;;;;25.90;98.60;;;;;;5092850;28;20007;-71
2023/08/25 08:42:24;;;;;;;;;;;26.20;98.30;;;;;;5092398;28;20267;-72
2023/08/25 08:44:50;;;;;;;;;;;26.30;98.10;;;;;;5091958;28;19919;-72
2023/08/25 08:47:16;;;;;;;;;;;26.40;97.80;;;;;;5091405;28;19912;-71
2023/08/25 08:49:43;;;;;;;;;;;26.50;97.50;;;;;;5091498;28;20006;-71
2023/08/25 08:52:09;;;;;;;;;;;26.70;97.10;;;;;;5092520;28;19949;-71
2023/08/25 08:54:35;;;;;;;;;;;26.80;97.20;;;;;;5091288;28;19912;-70
2023/08/25 08:57:01;;;;;;;;;;;27.10;96.90;;;;;;5092929;28;19919;-71
2023/08/25 08:59:27;;;;;;;;;;;27.70;96.40;;;;;;5092827;28;19912;-75
2023/08/25 09:01:54;;;;;;;;;;;28.10;96.20;;;;;;5092312;28;19920;-75
2023/08/25 09:04:22;;;;;;;;;;;28.20;95.00;;;;;;5092576;28;20257;-73
2023/08/25 09:06:51;;;;;;;;;;;28.30;95.40;;;;;;5091383;28;19946;-74
2023/08/25 09:09:20;;;;;;;;;;;28.60;94.80;;;;;;5092645;28;19909;-74
2023/08/25 09:11:46;;;;;;;;;;;29.10;94.80;;;;;;5091806;28;19908;-73
2023/08/25 09:14:13;;;;;;;;;;;29.70;93.50;;;;;;5092514;28;19912;-75
2023/08/25 09:16:38;;;;;;;;;;;29.50;92.80;;;;;;5091936;28;19927;-72
2023/08/25 09:19:05;;;;;;;;;;;29.50;92.50;;;;;;5092462;28;19912;-73
2023/08/25 09:21:30;;;;;;;;;;;29.90;92.80;;;;;;5090860;28;19969;-72
2023/08/25 09:23:58;;;;;;;;;;;30.10;92.10;;;;;;5092369;28;19995;-74
2023/08/25 09:26:25;;;;;;;;;;;29.90;91.50;;;;;;5092091;28;19935;-72
2023/08/25 09:28:51;;;;;;;;;;;29.60;91.60;;;;;;5091901;28;20336;-73
2023/08/25 09:31:27;;;;;;;;;;;29.60;92.20;;;;;;5091567;28;19999;-71
2023/08/25 09:33:58;;;;;;;;;;;30.00;92.00;;;;;;5091623;28;19939;-73
2023/08/25 09:36:24;;;;;;;;;;;30.20;91.80;;;;;;5092077;28;19920;-72
2023/08/25 09:38:49;;;;;;;;;;;30.50;91.30;;;;;;5091347;28;19908;-72
2023/08/25 09:41:24;;;;;;;;;;;30.70;91.10;;;;;;5091701;28;20379;-73
2023/08/25 09:43:50;;;;;;;;;;;30.90;91.40;;;;;;5091872;28;19919;-73
2023/08/25 09:46:16;;;;;;;;;;;30.50;90.80;;;;;;5090524;28;19923;-74
2023/08/25 09:48:43;;;;;;;;;;;30.50;90.90;;;;;;5091533;28;19912;-74
2023/08/25 09:51:09;;;;;;;;;;;30.10;91.10;;;;;;5091594;28;20384;-74
2023/08/25 09:53:36;;;;;;;;;;;29.90;91.50;;;;;;5092401;28;19910;-73
2023/08/25 09:56:04;;;;;;;;;;;29.90;91.60;;;;;;5091610;28;19913;-73
2023/08/25 09:58:30;;;;;;;;;;;29.70;91.70;;;;;;5091509;28;19912;-74
2023/08/25 10:00:56;;;;;;;;;;;29.50;91.80;;;;;;5091473;28;19938;-73
2023/08/25 10:03:22;;;;;;;;;;;29.40;91.90;;;;;;5091462;28;19935;-72
2023/08/25 10:05:48;;;;;;;;;;;29.10;92.20;;;;;;5091977;28;19919;-74
2023/08/25 10:08:14;;;;;;;;;;;28.70;92.50;;;;;;5090342;28;19916;-72
2023/08/25 10:10:41;;;;;;;;;;;28.40;92.60;;;;;;5091468;28;19954;-74
2023/08/25 10:13:07;;;;;;;;;;;28.10;93.00;;;;;;5091816;28;19968;-73
2023/08/25 10:15:33;;;;;;;;;;;27.70;93.50;;;;;;5090884;28;20003;-72
2023/08/25 10:18:01;;;;;;;;;;;27.50;93.80;;;;;;5091908;28;20310;-73
2023/08/25 10:20:27;;;;;;;;;;;27.40;94.20;;;;;;5091173;28;19912;-73
2023/08/25 10:22:54;;;;;;;;;;;27.20;94.50;;;;;;5091311;28;20319;-74
2023/08/25 10:25:20;;;;;;;;;;;26.90;94.80;;;;;;5090218;28;19912;-74
2023/08/25 10:27:45;;;;;;;;;;;26.70;95.10;;;;;;5089865;28;19989;-73
2023/08/25 10:30:11;;;;;;;;;;;26.60;95.30;;;;;;5090004;28;19908;-74
2023/08/25 10:32:50;;;;;;;;;;;26.50;95.40;;;;;;5093715;28;20226;-75
2023/08/25 10:35:16;;;;;;;;;;;26.40;95.40;;;;;;5094846;28;19924;-73
2023/08/25 10:37:41;;;;;;;;;;;26.30;95.60;;;;;;5095189;28;19934;-73
2023/08/25 10:40:10;;;;;;;;;;;26.20;95.90;;;;;;5095026;28;20265;-73
2023/08/25 10:42:35;;;;;;;;;;;26.00;96.10;;;;;;5093922;28;20365;-72
2023/08/25 10:45:03;;;;;;;;;;;26.00;96.40;;;;;;5095210;28;19951;-73
2023/08/25 10:47:29;;;;;;;;;;;25.90;96.80;;;;;;5094866;28;19916;-73
2023/08/25 10:49:55;;;;;;;;;;;25.80;97.00;;;;;;5094711;28;19939;-71
2023/08/25 10:52:22;;;;;;;;;;;25.70;97.40;;;;;;5093130;28;19912;-72
2023/08/25 10:54:49;;;;;;;;;;;25.50;97.60;;;;;;5094330;28;19912;-73
2023/08/25 10:57:21;;;;;;;;;;;25.30;98.00;;;;;;5094755;28;20003;-73
2023/08/25 10:59:50;;;;;;;;;;;25.20;98.90;;;;;;5095054;28;20119;-73
2023/08/25 11:02:39;;;;;;;;;;;25.10;99.40;;;;;;5094726;28;19952;-73
2023/08/25 11:05:24;;;;;;;;;;;25.00;99.70;;;;;;5085022;28;19912;-72
2023/08/25 11:07:49;;;;;;;;;;;24.90;99.90;;;;;;5094137;28;19973;-72
2023/08/25 11:10:15;;;;;;;;;;;24.80;99.90;;;;;;5093551;28;19939;-72
2023/08/25 11:12:41;;;;;;;;;;;24.60;99.90;;;;;;5094648;28;20334;-73
2023/08/25 11:15:10;;;;;;;;;;;24.40;99.90;;;;;;5094217;28;20222;-73
2023/08/25 11:17:36;;;;;;;;;;;24.20;99.90;;;;;;5094656;28;19908;-73
2023/08/25 11:20:01;;;;;;;;;;;24.20;99.90;;;;;;5093233;28;19912;-70
2023/08/25 11:22:27;;;;;;;;;;;24.00;99.90;;;;;;5094359;28;19957;-70
2023/08/25 11:24:52;;;;;;;;;;;23.90;99.90;;;;;;5093208;28;20246;-71
2023/08/25 11:27:22;;;;;;;;;;;23.90;99.90;;;;;;5094048;28;19970;-71
2023/08/25 11:29:49;;;;;;;;;;;23.90;99.90;;;;;;5094436;28;19904;-70
2023/08/25 11:32:15;;;;;;;;;;;23.90;99.90;;;;;;5092507;28;19919;-71
2023/08/25 11:34:41;;;;;;;;;;;23.90;99.90;;;;;;5093318;28;20351;-71
2023/08/25 11:37:10;;;;;;;;;;;23.80;99.90;;;;;;5093678;28;19915;-72
2023/08/25 11:39:42;;;;;;;;;;;23.80;99.90;;;;;;5093491;28;20002;-75
2023/08/25 11:42:07;;;;;;;;;;;23.80;99.90;;;;;;5093306;28;19994;-74
2023/08/25 11:44:33;;;;;;;;;;;23.70;99.90;;;;;;5092757;28;20338;-72
2023/08/25 11:46:59;;;;;;;;;;;23.60;99.90;;;;;;5093396;28;19927;-73
2023/08/25 11:49:26;;;;;;;;;;;23.60;99.90;;;;;;5093414;28;19940;-71
2023/08/25 11:51:55;;;;;;;;;;;23.50;99.90;;;;;;5093950;28;19945;-71
2023/08/25 11:54:20;;;;;;;;;;;23.40;99.90;;;;;;5092423;28;20395;-71
2023/08/25 11:56:50;;;;;;;;;;;23.40;99.90;;;;;;5094395;28;20176;-72
2023/08/25 11:59:17;;;;;;;;;;;23.30;99.90;;;;;;5093812;28;19912;-74
2023/08/25 12:01:42;;;;;;;;;;;23.30;99.90;;;;;;5092068;28;19916;-73
2023/08/25 12:04:24;;;;;;;;;;;23.20;99.90;;;;;;5093350;28;19977;-72
2023/08/25 12:06:53;;;;;;;;;;;23.10;99.90;;;;;;5093444;28;19912;-73
2023/08/25 12:09:25;;;;;;;;;;;23.00;99.90;;;;;;5092355;28;19912;-75
2023/08/25 12:11:53;;;;;;;;;;;22.90;99.90;;;;;;5093828;28;19908;-74
2023/08/25 12:14:25;;;;;;;;;;;22.90;99.90;;;;;;5091920;28;20403;-73
2023/08/25 12:16:51;;;;;;;;;;;22.80;99.90;;;;;;5092058;28;19912;-71
2023/08/25 12:19:16;;;;;;;;;;;22.80;99.90;;;;;;5093230;28;20325;-71
2023/08/25 12:21:42;;;;;;;;;;;22.80;99.90;;;;;;5089958;28;19978;-74
2023/08/25 12:24:07;;;;;;;;;;;22.80;99.90;;;;;;5093284;28;19912;-71
2023/08/25 12:26:33;;;;;;;;;;;22.80;99.90;;;;;;5092684;28;19912;-71
2023/08/25 12:28:59;;;;;;;;;;;22.70;99.90;;;;;;5093220;28;19986;-71
2023/08/25 12:31:24;;;;;;;;;;;22.70;99.90;;;;;;5093273;28;19923;-70
2023/08/25 12:33:50;;;;;;;;;;;22.70;99.90;;;;;;5091847;28;19993;-70
2023/08/25 12:36:15;;;;;;;;;;;22.70;99.90;;;;;;5092804;28;20378;-70
2023/08/25 12:38:41;;;;;;;;;;;22.60;99.90;;;;;;5092947;28;19911;-70
2023/08/25 12:41:06;;;;;;;;;;;22.60;99.90;;;;;;5091548;28;19913;-72
2023/08/25 12:43:34;;;;;;;;;;;22.60;99.90;;;;;;5092930;28;19955;-72
2023/08/25 12:46:00;;;;;;;;;;;22.50;99.90;;;;;;5091714;28;19940;-73
2023/08/25 12:48:26;;;;;;;;;;;22.50;99.90;;;;;;5091936;28;20388;-77
2023/08/25 12:50:51;;;;;;;;;;;22.50;99.90;;;;;;5092906;28;20007;-74
2023/08/25 12:53:17;;;;;;;;;;;22.50;99.90;;;;;;5091892;28;19912;-72
2023/08/25 12:55:44;;;;;;;;;;;22.50;99.90;;;;;;5092636;28;19991;-71
2023/08/25 12:58:09;;;;;;;;;;;22.40;99.90;;;;;;5092637;28;19966;-70
2023/08/25 13:00:35;;;;;;;;;;;22.30;99.90;;;;;;5092835;28;20364;-72
2023/08/25 13:03:00;;;;;;;;;;;22.40;99.90;;;;;;5093302;28;20348;-72
2023/08/25 13:05:26;;;;;;;;;;;22.50;99.90;;;;;;5092556;28;20293;-71
2023/08/25 13:07:52;;;;;;;;;;;22.60;99.90;;;;;;5091559;28;20355;-70
2023/08/25 13:10:17;;;;;;;;;;;22.60;99.90;;;;;;5092215;28;19917;-73
2023/08/25 13:12:43;;;;;;;;;;;22.70;99.90;;;;;;5092356;28;19916;-70
2023/08/25 13:15:10;;;;;;;;;;;22.70;99.90;;;;;;5092306;28;19987;-72
2023/08/25 13:17:35;;;;;;;;;;;22.70;99.90;;;;;;5092836;28;19908;-71
2023/08/25 13:20:02;;;;;;;;;;;22.70;99.90;;;;;;5092060;28;19912;-74
2023/08/25 13:22:28;;;;;;;;;;;22.70;99.90;;;;;;5092028;28;19962;-72
2023/08/25 13:24:53;;;;;;;;;;;22.70;99.90;;;;;;5092172;28;20303;-71
2023/08/25 13:27:19;;;;;;;;;;;22.80;99.90;;;;;;5092185;28;19982;-73
2023/08/25 13:29:44;;;;;;;;;;;22.80;99.90;;;;;;5092815;28;19918;-71
2023/08/25 13:32:10;;;;;;;;;;;22.80;99.90;;;;;;5092200;28;19943;-70
2023/08/25 13:34:38;;;;;;;;;;;22.90;99.90;;;;;;5090830;28;19946;-70
2023/08/25 13:37:03;;;;;;;;;;;22.90;99.90;;;;;;5091974;28;19913;-70
2023/08/25 13:39:29;;;;;;;;;;;23.10;99.90;;;;;;5090996;28;19916;-74
2023/08/25 13:41:55;;;;;;;;;;;23.10;99.90;;;;;;5092364;28;19912;-71
2023/08/25 13:44:21;;;;;;;;;;;23.10;99.90;;;;;;5090719;28;19954;-71
2023/08/25 13:46:46;;;;;;;;;;;23.20;99.90;;;;;;5091733;28;19951;-71
2023/08/25 13:49:12;;;;;;;;;;;23.20;99.90;;;;;;5091849;28;19912;-70
2023/08/25 13:51:37;;;;;;;;;;;23.10;99.90;;;;;;5091458;28;20301;-71
2023/08/25 13:54:03;;;;;;;;;;;23.10;99.90;;;;;;5091701;28;20353;-71
2023/08/25 13:56:28;;;;;;;;;;;23.10;99.90;;;;;;5092250;28;20053;-73
2023/08/25 13:58:54;;;;;;;;;;;23.00;99.90;;;;;;5091743;28;19912;-71
2023/08/25 14:01:20;;;;;;;;;;;23.00;99.90;;;;;;5091727;28;20255;-70
2023/08/25 14:03:46;;;;;;;;;;;22.90;99.90;;;;;;5091934;28;19912;-72
2023/08/25 14:06:12;;;;;;;;;;;22.90;99.90;;;;;;5089933;28;19993;-71
2023/08/25 14:08:38;;;;;;;;;;;22.90;99.90;;;;;;5091954;28;19912;-71
2023/08/25 14:11:04;;;;;;;;;;;23.00;99.90;;;;;;5090740;28;19969;-72